createdAt,value
2017-12-21T00:00:54.898Z,99.02
2017-12-21T00:02:04.775Z,98.83
2017-12-21T00:03:14.961Z,98.93
2017-12-21T00:04:24.557Z,98.64
2017-12-21T00:05:34.106Z,98.74
2017-12-21T00:06:44.223Z,98.83
2017-12-21T00:07:54.343Z,98.93
2017-12-21T00:09:04.448Z,98.93
2017-12-21T00:10:14.273Z,99.02
2017-12-21T00:11:24.506Z,98.55
2017-12-21T00:12:34.396Z,98.55
2017-12-21T00:13:43.904Z,98.83
2017-12-21T00:14:54.039Z,99.02
2017-12-21T00:16:04.217Z,98.55
2017-12-21T00:17:14.329Z,98.55
2017-12-21T00:18:24.167Z,98.55
2017-12-21T00:19:34.320Z,98.55
2017-12-21T00:20:44.421Z,98.64
2017-12-21T00:21:54.610Z,98.74
2017-12-21T00:23:04.464Z,98.55
2017-12-21T00:24:14.568Z,98.64
2017-12-21T00:25:24.449Z,98.45
2017-12-21T00:26:34.331Z,98.45
2017-12-21T00:27:44.211Z,98.64
2017-12-21T00:28:54.312Z,98.55
2017-12-21T00:30:04.412Z,99.02
2017-12-21T00:31:14.288Z,98.55
2017-12-21T00:32:24.391Z,98.69
2017-12-21T00:33:34.286Z,98.69
2017-12-21T00:34:44.436Z,98.83
2017-12-21T00:35:54.537Z,98.74
2017-12-21T00:37:04.706Z,98.79
2017-12-21T00:38:14.872Z,98.55
2017-12-21T00:39:24.741Z,98.79
2017-12-21T00:40:34.845Z,98.55
2017-12-21T00:41:44.979Z,98.74
2017-12-21T00:42:55.125Z,98.6
2017-12-21T00:44:05.283Z,98.64
2017-12-21T00:45:15.149Z,98.55
2017-12-21T00:46:24.914Z,99.02
2017-12-21T00:47:35.075Z,98.74
2017-12-21T00:48:44.689Z,98.83
2017-12-21T00:49:54.803Z,98.83
2017-12-21T00:51:04.924Z,98.55
2017-12-21T00:52:14.810Z,98.88
2017-12-21T00:53:24.927Z,98.97
2017-12-21T00:54:35.037Z,99.4
2017-12-21T00:55:45.173Z,99.45
2017-12-21T00:56:55.312Z,99.16
2017-12-21T00:58:05.466Z,99.16
2017-12-21T00:59:15.636Z,99.26
2017-12-21T01:00:25.742Z,99.36
2017-12-21T01:01:35.931Z,99.16
2017-12-21T01:02:46.071Z,99.26
2017-12-21T01:03:56.237Z,99.26
2017-12-21T01:05:06.362Z,99.36
2017-12-21T01:06:16.468Z,99.07
2017-12-21T01:07:26.580Z,99.26
2017-12-21T01:08:36.717Z,99.26
2017-12-21T01:09:46.972Z,99.26
2017-12-21T01:10:57.119Z,99.26
2017-12-21T01:12:07.253Z,99.36
2017-12-21T01:13:17.133Z,99.16
2017-12-21T01:14:27.257Z,99.36
2017-12-21T01:15:37.355Z,99.26
2017-12-21T01:16:47.450Z,99.07
2017-12-21T01:17:57.558Z,99.07
2017-12-21T01:19:07.668Z,99.26
2017-12-21T01:20:17.779Z,99.26
2017-12-21T01:21:27.914Z,98.88
2017-12-21T01:22:37.515Z,99.26
2017-12-21T01:23:47.619Z,99.16
2017-12-21T01:24:57.775Z,99.16
2017-12-21T01:26:07.648Z,99.16
2017-12-21T01:27:17.877Z,99.26
2017-12-21T01:28:28.008Z,99.16
2017-12-21T01:29:38.198Z,99.45
2017-12-21T01:30:48.142Z,99.26
2017-12-21T01:31:58.257Z,99.36
2017-12-21T01:33:08.095Z,99.07
2017-12-21T01:34:18.068Z,99.26
2017-12-21T01:35:27.939Z,99.26
2017-12-21T01:36:38.192Z,99.26
2017-12-21T01:37:48.337Z,98.88
2017-12-21T01:38:58.661Z,99.26
2017-12-21T01:40:08.601Z,99.26
2017-12-21T01:41:18.452Z,99.16
2017-12-21T01:42:28.588Z,99.26
2017-12-21T01:43:38.741Z,99.64
2017-12-21T01:44:48.850Z,99.45
2017-12-21T01:45:58.585Z,99.36
2017-12-21T01:47:08.433Z,98.88
2017-12-21T01:48:18.609Z,99.07
2017-12-21T01:49:28.711Z,99.07
2017-12-21T01:50:38.881Z,99.16
2017-12-21T01:51:49.052Z,98.88
2017-12-21T01:52:59.243Z,98.88
2017-12-21T01:54:09.108Z,98.5
2017-12-21T01:55:19.217Z,98.88
2017-12-21T01:56:29.367Z,98.79
2017-12-21T01:57:39.216Z,98.6
2017-12-21T01:58:49.120Z,98.88
2017-12-21T01:59:59.216Z,99.07
2017-12-21T02:01:09.375Z,98.41
2017-12-21T02:02:19.545Z,98.5
2017-12-21T02:03:29.740Z,98.41
2017-12-21T02:04:39.902Z,98.31
2017-12-21T02:05:50.009Z,98.79
2017-12-21T02:07:00.213Z,98.69
2017-12-21T02:08:09.996Z,98.6
2017-12-21T02:09:20.128Z,98.79
2017-12-21T02:10:30.125Z,98.69
2017-12-21T02:11:40.307Z,98.79
2017-12-21T02:12:50.467Z,98.6
2017-12-21T02:14:00.573Z,98.5
2017-12-21T02:15:10.673Z,98.69
2017-12-21T02:16:20.797Z,98.79
2017-12-21T02:17:31.014Z,98.5
2017-12-21T02:18:41.224Z,98.5
2017-12-21T02:19:51.063Z,98.6
2017-12-21T02:21:00.801Z,98.6
2017-12-21T02:22:10.924Z,98.79
2017-12-21T02:23:21.066Z,98.79
2017-12-21T02:24:30.914Z,98.69
2017-12-21T02:25:41.069Z,98.6
2017-12-21T02:26:50.933Z,98.69
2017-12-21T02:28:01.061Z,98.69
2017-12-21T02:29:11.245Z,98.88
2017-12-21T02:30:21.458Z,98.5
2017-12-21T02:31:31.567Z,98.41
2017-12-21T02:32:41.261Z,98.97
2017-12-21T02:33:51.362Z,98.41
2017-12-21T02:35:01.471Z,98.79
2017-12-21T02:36:11.618Z,99.07
2017-12-21T02:37:21.777Z,98.88
2017-12-21T02:38:31.983Z,98.79
2017-12-21T02:39:42.129Z,98.88
2017-12-21T02:40:52.048Z,98.88
2017-12-21T02:42:02.191Z,98.6
2017-12-21T02:43:11.786Z,98.6
2017-12-21T02:44:21.659Z,99.07
2017-12-21T02:45:31.814Z,98.97
2017-12-21T02:46:41.925Z,98.5
2017-12-21T02:47:52.046Z,98.5
2017-12-21T02:49:03.148Z,98.5
2017-12-21T02:50:13.015Z,98.31
2017-12-21T02:51:22.982Z,98.31
2017-12-21T02:52:33.203Z,98.41
2017-12-21T02:53:43.335Z,98.5
2017-12-21T02:54:53.115Z,98.88
2017-12-21T02:56:03.094Z,98.6
2017-12-21T02:57:13.007Z,98.88
2017-12-21T02:58:23.122Z,98.88
2017-12-21T02:59:33.227Z,98.88
2017-12-21T03:00:43.333Z,98.79
2017-12-21T03:01:53.455Z,99.45
2017-12-21T03:03:03.580Z,99.07
2017-12-21T03:04:13.428Z,99.16
2017-12-21T03:05:23.531Z,98.97
2017-12-21T03:06:33.474Z,99.16
2017-12-21T03:07:43.360Z,99.36
2017-12-21T03:08:53.479Z,99.26
2017-12-21T03:10:03.591Z,99.07
2017-12-21T03:11:13.968Z,99.26
2017-12-21T03:12:24.099Z,99.64
2017-12-21T03:13:33.955Z,99.26
2017-12-21T03:14:43.815Z,98.88
2017-12-21T03:15:53.908Z,99.07
2017-12-21T03:17:04.021Z,99.07
2017-12-21T03:18:14.229Z,99.55
2017-12-21T03:19:23.740Z,99.36
2017-12-21T03:20:33.840Z,99.45
2017-12-21T03:21:43.703Z,99.93
2017-12-21T03:22:53.701Z,99.74
2017-12-21T03:24:03.560Z,99.99
2017-12-21T03:25:13.709Z,99.84
2017-12-21T03:26:23.558Z,99.84
2017-12-21T03:27:33.700Z,99.99
2017-12-21T03:28:43.799Z,99.99
2017-12-21T03:29:53.965Z,99.84
2017-12-21T03:31:04.123Z,99.99
2017-12-21T03:32:14.515Z,99.99
2017-12-21T03:33:24.716Z,99.99
2017-12-21T03:34:34.553Z,99.99
2017-12-21T03:35:44.683Z,99.99
2017-12-21T03:36:54.785Z,99.99
2017-12-21T03:38:04.892Z,99.99
2017-12-21T03:39:15.031Z,99.99
2017-12-21T03:40:25.149Z,99.99
2017-12-21T03:41:35.016Z,99.99
2017-12-21T03:42:45.130Z,99.99
2017-12-21T03:43:55.237Z,99.99
2017-12-21T03:45:05.415Z,99.99
2017-12-21T03:46:15.540Z,99.99
2017-12-21T03:47:25.653Z,99.99
2017-12-21T03:48:35.582Z,99.99
2017-12-21T03:49:45.828Z,99.99
2017-12-21T03:50:55.696Z,99.99
2017-12-21T03:52:05.799Z,99.99
2017-12-21T03:53:16.058Z,99.99
2017-12-21T03:54:26.243Z,99.99
2017-12-21T03:55:36.354Z,99.99
2017-12-21T03:56:46.453Z,99.99
2017-12-21T03:57:56.553Z,99.99
2017-12-21T03:59:06.697Z,99.99
2017-12-21T04:00:16.803Z,99.99
2017-12-21T04:01:26.651Z,99.99
2017-12-21T04:02:36.531Z,99.99
2017-12-21T04:03:46.644Z,99.99
2017-12-21T04:04:56.767Z,99.99
2017-12-21T04:06:06.663Z,99.99
2017-12-21T04:07:16.841Z,99.99
2017-12-21T04:08:26.954Z,99.99
2017-12-21T04:09:37.050Z,99.99
2017-12-21T04:10:47.370Z,99.99
2017-12-21T04:11:57.484Z,99.99
2017-12-21T04:13:07.612Z,99.99
2017-12-21T04:14:17.727Z,99.99
2017-12-21T04:15:27.593Z,99.99
2017-12-21T04:16:37.442Z,99.99
2017-12-21T04:17:47.593Z,99.99
2017-12-21T04:18:57.522Z,99.99
2017-12-21T04:20:07.700Z,99.99
2017-12-21T04:21:17.484Z,99.99
2017-12-21T04:22:27.606Z,99.99
2017-12-21T04:23:37.226Z,99.99
2017-12-21T04:24:47.098Z,99.99
2017-12-21T04:25:57.217Z,99.99
2017-12-21T04:27:07.172Z,99.99
2017-12-21T04:28:17.309Z,99.99
2017-12-21T04:29:27.146Z,99.99
2017-12-21T04:30:36.988Z,99.99
2017-12-21T04:31:47.103Z,99.99
2017-12-21T04:32:57.244Z,99.99
2017-12-21T04:34:07.517Z,99.99
2017-12-21T04:35:17.662Z,99.99
2017-12-21T04:36:27.794Z,99.99
2017-12-21T04:37:37.925Z,99.99
2017-12-21T04:38:48.017Z,99.99
2017-12-21T04:39:58.188Z,99.99
2017-12-21T04:41:08.311Z,99.99
2017-12-21T04:42:18.147Z,99.99
2017-12-21T04:43:28.016Z,99.99
2017-12-21T04:44:37.756Z,99.99
2017-12-21T04:45:47.666Z,99.99
2017-12-21T04:46:57.486Z,99.99
2017-12-21T04:48:07.327Z,99.99
2017-12-21T04:49:17.188Z,99.99
2017-12-21T04:50:27.048Z,99.99
2017-12-21T04:51:36.927Z,99.99
2017-12-21T04:52:47.087Z,99.99
2017-12-21T04:53:57.245Z,99.99
2017-12-21T04:55:07.360Z,99.99
2017-12-21T04:56:17.477Z,99.99
2017-12-21T04:57:27.628Z,99.99
2017-12-21T04:58:37.488Z,99.99
2017-12-21T04:59:47.588Z,99.99
2017-12-21T05:00:57.729Z,99.99
2017-12-21T05:02:07.873Z,99.99
2017-12-21T05:03:18.043Z,99.99
2017-12-21T05:04:28.164Z,99.99
2017-12-21T05:05:39.018Z,99.99
2017-12-21T05:06:49.139Z,99.99
2017-12-21T05:07:59.231Z,99.99
2017-12-21T05:09:09.210Z,99.99
2017-12-21T05:10:19.333Z,99.99
2017-12-21T05:11:29.189Z,99.99
2017-12-21T05:12:39.074Z,99.99
2017-12-21T05:13:48.698Z,99.99
2017-12-21T05:14:58.813Z,99.99
2017-12-21T05:16:09.021Z,99.99
2017-12-21T05:17:19.118Z,99.99
2017-12-21T05:18:29.237Z,99.99
2017-12-21T05:19:39.353Z,99.99
2017-12-21T05:20:49.198Z,99.99
2017-12-21T05:21:59.312Z,99.99
2017-12-21T05:23:09.161Z,99.99
2017-12-21T05:24:19.291Z,99.99
2017-12-21T05:25:29.146Z,99.99
2017-12-21T05:26:39.045Z,99.99
2017-12-21T05:27:49.205Z,99.99
2017-12-21T05:28:59.311Z,99.99
2017-12-21T05:30:09.419Z,99.99
2017-12-21T05:31:19.224Z,99.99
2017-12-21T05:32:29.075Z,99.99
2017-12-21T05:33:39.174Z,99.99
2017-12-21T05:34:49.044Z,99.99
2017-12-21T05:35:58.635Z,99.99
2017-12-21T05:37:08.334Z,99.99
2017-12-21T05:38:18.173Z,99.99
2017-12-21T05:39:28.277Z,99.99
2017-12-21T05:40:38.415Z,99.99
2017-12-21T05:41:48.266Z,99.99
2017-12-21T05:42:58.393Z,99.99
2017-12-21T05:44:08.282Z,99.99
2017-12-21T05:45:18.022Z,99.99
2017-12-21T05:46:29.117Z,99.99
2017-12-21T05:47:40.290Z,99.99
2017-12-21T05:48:50.470Z,99.99
2017-12-21T05:50:00.674Z,99.99
2017-12-21T05:51:10.534Z,99.99
2017-12-21T05:52:20.124Z,99.99
2017-12-21T05:53:30.400Z,99.99
2017-12-21T05:54:40.588Z,99.99
2017-12-21T05:55:50.724Z,99.99
2017-12-21T05:57:00.319Z,99.99
2017-12-21T05:58:10.437Z,99.99
2017-12-21T05:59:20.033Z,99.99
2017-12-21T06:00:29.816Z,99.99
2017-12-21T06:01:39.593Z,99.99
2017-12-21T06:02:49.716Z,99.99
2017-12-21T06:03:59.902Z,99.99
2017-12-21T06:05:09.809Z,99.99
2017-12-21T06:06:19.657Z,99.99
2017-12-21T06:07:29.647Z,99.99
2017-12-21T06:08:39.864Z,99.99
2017-12-21T06:09:49.996Z,99.99
2017-12-21T06:11:00.174Z,99.99
2017-12-21T06:12:10.431Z,99.99
2017-12-21T06:13:20.196Z,99.99
2017-12-21T06:14:30.367Z,99.99
2017-12-21T06:15:40.249Z,99.99
2017-12-21T06:16:50.349Z,99.99
2017-12-21T06:18:00.025Z,99.99
2017-12-21T06:19:10.412Z,99.99
2017-12-21T06:20:20.588Z,99.99
2017-12-21T06:21:30.830Z,99.99
2017-12-21T06:22:41.050Z,99.99
2017-12-21T06:23:51.225Z,99.99
2017-12-21T06:25:01.321Z,99.99
2017-12-21T06:26:11.425Z,99.99
2017-12-21T06:27:21.036Z,99.99
2017-12-21T06:28:31.179Z,99.99
2017-12-21T06:29:40.882Z,99.99
2017-12-21T06:30:50.741Z,99.99
2017-12-21T06:32:00.246Z,99.99
2017-12-21T06:33:10.209Z,99.99
2017-12-21T06:34:19.960Z,99.99
2017-12-21T06:35:29.600Z,99.99
2017-12-21T06:36:39.797Z,99.99
2017-12-21T06:37:50.000Z,99.99
2017-12-21T06:39:00.212Z,99.99
2017-12-21T06:40:10.350Z,99.99
2017-12-21T06:41:20.206Z,99.99
2017-12-21T06:42:30.326Z,99.99
2017-12-21T06:43:40.537Z,99.99
2017-12-21T06:44:50.435Z,99.99
2017-12-21T06:46:00.663Z,99.99
2017-12-21T06:47:10.825Z,99.99
2017-12-21T06:48:20.939Z,99.99
2017-12-21T06:49:31.055Z,99.99
2017-12-21T06:50:40.655Z,99.99
2017-12-21T06:51:50.744Z,99.99
2017-12-21T06:53:00.579Z,99.99
2017-12-21T06:54:10.719Z,99.99
2017-12-21T06:55:20.473Z,99.99
2017-12-21T06:56:29.956Z,99.99
2017-12-21T06:57:40.067Z,99.99
2017-12-21T06:58:50.193Z,99.99
2017-12-21T07:00:00.370Z,99.99
2017-12-21T07:01:10.531Z,99.99
2017-12-21T07:02:20.382Z,99.99
2017-12-21T07:03:30.508Z,99.99
2017-12-21T07:04:40.641Z,99.99
2017-12-21T07:05:50.505Z,99.99
2017-12-21T07:07:00.712Z,99.99
2017-12-21T07:08:10.856Z,99.99
2017-12-21T07:09:20.757Z,99.99
2017-12-21T07:10:30.935Z,99.99
2017-12-21T07:11:41.049Z,99.99
2017-12-21T07:12:51.154Z,99.99
2017-12-21T07:14:01.268Z,99.99
2017-12-21T07:15:11.215Z,99.99
2017-12-21T07:16:21.312Z,99.99
2017-12-21T07:17:31.280Z,99.99
2017-12-21T07:18:41.509Z,99.99
2017-12-21T07:19:51.680Z,99.99
2017-12-21T07:21:01.913Z,99.99
2017-12-21T07:22:11.800Z,99.99
2017-12-21T07:23:21.937Z,99.99
2017-12-21T07:24:32.058Z,99.99
2017-12-21T07:25:41.076Z,99.99
2017-12-21T07:26:51.230Z,99.99
2017-12-21T07:28:01.359Z,99.99
2017-12-21T07:29:11.522Z,99.99
2017-12-21T07:30:21.393Z,99.99
2017-12-21T07:31:31.240Z,99.99
2017-12-21T07:32:41.114Z,99.99
2017-12-21T07:33:50.352Z,99.99
2017-12-21T07:35:00.564Z,99.99
2017-12-21T07:36:10.862Z,99.99
2017-12-21T07:37:20.743Z,99.99
2017-12-21T07:38:30.847Z,99.99
2017-12-21T07:39:41.049Z,99.99
2017-12-21T07:40:50.899Z,99.99
2017-12-21T07:42:00.751Z,99.99
2017-12-21T07:43:10.769Z,99.99
2017-12-21T07:44:20.664Z,99.99
2017-12-21T07:45:30.778Z,99.99
2017-12-21T07:46:40.631Z,99.99
2017-12-21T07:47:50.759Z,99.99
2017-12-21T07:49:00.881Z,99.99
2017-12-21T07:50:10.730Z,99.99
2017-12-21T07:51:20.239Z,99.99
2017-12-21T07:52:30.341Z,99.99
2017-12-21T07:53:40.448Z,99.99
2017-12-21T07:54:50.462Z,99.99
2017-12-21T07:56:00.141Z,99.99
2017-12-21T07:57:09.703Z,99.99
2017-12-21T07:58:19.970Z,99.99
2017-12-21T07:59:30.077Z,99.99
2017-12-21T08:00:40.198Z,99.99
2017-12-21T08:01:50.135Z,99.99
2017-12-21T08:03:00.021Z,99.99
2017-12-21T08:04:09.997Z,99.99
2017-12-21T08:05:20.095Z,99.99
2017-12-21T08:06:30.010Z,99.99
2017-12-21T08:07:40.161Z,99.99
2017-12-21T08:08:50.274Z,99.99
2017-12-21T08:10:01.359Z,99.99
2017-12-21T08:11:11.476Z,99.99
2017-12-21T08:12:21.622Z,99.99
2017-12-21T08:13:31.744Z,99.99
2017-12-21T08:14:41.871Z,99.99
2017-12-21T08:15:51.750Z,99.99
2017-12-21T08:17:01.612Z,99.99
2017-12-21T08:18:11.508Z,99.99
2017-12-21T08:19:21.602Z,99.99
2017-12-21T08:20:32.714Z,99.99
2017-12-21T08:21:42.082Z,99.99
2017-12-21T08:22:52.206Z,99.99
2017-12-21T08:24:02.389Z,99.99
2017-12-21T08:25:12.495Z,99.99
2017-12-21T08:26:22.054Z,99.99
2017-12-21T08:27:32.222Z,99.99
2017-12-21T08:28:42.123Z,99.99
2017-12-21T08:29:52.288Z,99.99
2017-12-21T08:31:01.930Z,99.99
2017-12-21T08:32:11.826Z,99.99
2017-12-21T08:33:21.963Z,99.99
2017-12-21T08:34:32.205Z,99.99
2017-12-21T08:35:42.389Z,99.99
2017-12-21T08:36:52.171Z,99.99
2017-12-21T08:38:02.388Z,99.99
2017-12-21T08:39:12.287Z,99.99
2017-12-21T08:40:22.461Z,99.99
2017-12-21T08:41:32.566Z,99.99
2017-12-21T08:42:42.331Z,99.99
2017-12-21T08:43:52.483Z,99.99
2017-12-21T08:45:02.679Z,99.99
2017-12-21T08:46:12.801Z,99.99
2017-12-21T08:47:22.684Z,99.99
2017-12-21T08:48:33.438Z,99.99
2017-12-21T08:49:43.567Z,99.99
2017-12-21T08:50:53.356Z,99.99
2017-12-21T08:52:03.694Z,99.99
2017-12-21T08:53:13.918Z,99.99
2017-12-21T08:54:24.109Z,99.99
2017-12-21T08:55:33.698Z,99.99
2017-12-21T08:56:43.577Z,99.99
2017-12-21T08:57:53.834Z,99.99
2017-12-21T08:59:03.669Z,99.99
2017-12-21T09:00:13.793Z,99.99
2017-12-21T09:01:23.931Z,99.99
2017-12-21T09:02:33.864Z,99.99
2017-12-21T09:03:43.976Z,99.99
2017-12-21T09:04:53.879Z,99.99
2017-12-21T09:06:03.990Z,99.99
2017-12-21T09:07:13.879Z,99.99
2017-12-21T09:08:24.001Z,99.99
2017-12-21T09:09:34.137Z,99.99
2017-12-21T09:10:43.733Z,99.99
2017-12-21T09:11:53.879Z,99.99
2017-12-21T09:13:04.000Z,99.99
2017-12-21T09:14:14.028Z,99.99
2017-12-21T09:15:24.153Z,99.99
2017-12-21T09:16:34.284Z,99.99
2017-12-21T09:17:44.158Z,99.99
2017-12-21T09:18:54.293Z,99.99
2017-12-21T09:20:03.819Z,99.99
2017-12-21T09:21:13.687Z,99.99
2017-12-21T09:22:23.791Z,99.99
2017-12-21T09:23:33.938Z,99.99
2017-12-21T09:24:44.109Z,99.99
2017-12-21T09:25:54.323Z,99.99
2017-12-21T09:27:04.483Z,99.99
2017-12-21T09:28:14.604Z,99.99
2017-12-21T09:29:24.779Z,99.99
2017-12-21T09:30:34.989Z,99.99
2017-12-21T09:31:44.886Z,99.99
2017-12-21T09:32:55.038Z,99.99
2017-12-21T09:34:05.252Z,99.99
2017-12-21T09:35:15.366Z,99.99
2017-12-21T09:36:25.513Z,99.99
2017-12-21T09:37:35.633Z,99.99
2017-12-21T09:38:45.518Z,99.99
2017-12-21T09:39:55.375Z,99.99
2017-12-21T09:41:06.481Z,99.99
2017-12-21T09:42:16.342Z,99.99
2017-12-21T09:43:26.191Z,99.99
2017-12-21T09:44:35.943Z,99.99
2017-12-21T09:45:45.830Z,99.99
2017-12-21T09:46:55.715Z,99.99
2017-12-21T09:48:05.622Z,99.99
2017-12-21T09:49:15.793Z,99.99
2017-12-21T09:50:25.688Z,99.99
2017-12-21T09:51:35.292Z,99.99
2017-12-21T09:52:44.923Z,99.99
2017-12-21T09:53:54.436Z,99.99
2017-12-21T09:55:04.539Z,99.99
2017-12-21T09:56:14.151Z,99.99
2017-12-21T09:57:24.393Z,99.99
2017-12-21T09:58:34.211Z,99.99
2017-12-21T09:59:44.313Z,99.99
2017-12-21T10:00:54.456Z,99.99
2017-12-21T10:02:04.718Z,99.99
2017-12-21T10:03:14.973Z,99.99
2017-12-21T10:04:25.096Z,99.99
2017-12-21T10:05:34.589Z,99.99
2017-12-21T10:06:44.502Z,99.99
2017-12-21T10:07:54.369Z,99.99
2017-12-21T10:09:04.590Z,99.99
2017-12-21T10:10:14.538Z,99.99
2017-12-21T10:11:24.336Z,99.99
2017-12-21T10:12:34.199Z,99.99
2017-12-21T10:13:44.315Z,99.99
2017-12-21T10:14:54.429Z,99.99
2017-12-21T10:16:04.545Z,99.99
2017-12-21T10:17:15.646Z,99.99
2017-12-21T10:18:25.782Z,99.99
2017-12-21T10:19:35.913Z,99.99
2017-12-21T10:20:45.938Z,99.99
2017-12-21T10:21:56.188Z,99.99
2017-12-21T10:23:06.354Z,99.99
2017-12-21T10:24:16.557Z,99.99
2017-12-21T10:25:26.428Z,99.99
2017-12-21T10:26:36.345Z,99.99
2017-12-21T10:27:46.488Z,99.99
2017-12-21T10:28:56.588Z,99.99
2017-12-21T10:30:06.200Z,99.99
2017-12-21T10:31:16.386Z,99.99
2017-12-21T10:32:26.158Z,99.99
2017-12-21T10:33:36.343Z,99.99
2017-12-21T10:34:46.283Z,99.99
2017-12-21T10:35:56.441Z,99.99
2017-12-21T10:37:06.573Z,99.99
2017-12-21T10:38:16.420Z,99.99
2017-12-21T10:39:26.609Z,99.99
2017-12-21T10:40:36.558Z,99.99
2017-12-21T10:41:46.458Z,99.99
2017-12-21T10:42:56.639Z,99.99
2017-12-21T10:44:06.492Z,99.99
2017-12-21T10:45:16.613Z,99.99
2017-12-21T10:46:26.514Z,99.99
2017-12-21T10:47:36.412Z,99.99
2017-12-21T10:48:46.425Z,99.99
2017-12-21T10:49:56.536Z,99.99
2017-12-21T10:51:06.730Z,99.99
2017-12-21T10:52:16.968Z,99.99
2017-12-21T10:53:27.175Z,99.99
2017-12-21T10:54:37.047Z,99.99
2017-12-21T10:55:47.204Z,99.99
2017-12-21T10:56:57.344Z,99.99
2017-12-21T10:58:07.497Z,99.99
2017-12-21T10:59:17.256Z,99.99
2017-12-21T11:00:27.652Z,99.99
2017-12-21T11:01:37.902Z,99.99
2017-12-21T11:02:48.120Z,99.99
2017-12-21T11:03:58.306Z,99.99
2017-12-21T11:05:08.505Z,99.99
2017-12-21T11:06:18.365Z,99.99
2017-12-21T11:07:28.510Z,99.99
2017-12-21T11:08:38.486Z,99.99
2017-12-21T11:09:48.616Z,99.99
2017-12-21T11:10:58.370Z,99.99
2017-12-21T11:12:08.551Z,99.99
2017-12-21T11:13:18.680Z,99.99
2017-12-21T11:14:28.804Z,99.99
2017-12-21T11:15:38.969Z,99.99
2017-12-21T11:16:48.903Z,99.99
2017-12-21T11:17:59.042Z,99.99
2017-12-21T11:19:09.182Z,99.99
2017-12-21T11:20:19.350Z,99.99
2017-12-21T11:21:29.631Z,99.99
2017-12-21T11:22:39.497Z,99.99
2017-12-21T11:23:49.270Z,99.99
2017-12-21T11:24:59.423Z,99.99
2017-12-21T11:26:09.336Z,99.99
2017-12-21T11:27:19.457Z,99.99
2017-12-21T11:29:01.461Z,99.99
2017-12-21T11:30:11.356Z,99.99
2017-12-21T11:31:21.246Z,99.99
2017-12-21T11:32:31.386Z,99.99
2017-12-21T11:33:41.579Z,99.99
2017-12-21T11:34:51.708Z,99.99
2017-12-21T11:36:01.620Z,99.98
2017-12-21T11:37:11.276Z,99.99
2017-12-21T11:38:21.434Z,99.99
2017-12-21T11:39:31.639Z,99.99
2017-12-21T11:40:41.517Z,99.99
2017-12-21T11:41:51.672Z,99.99
2017-12-21T11:43:01.583Z,99.99
2017-12-21T11:44:11.722Z,99.99
2017-12-21T11:45:21.860Z,99.99
2017-12-21T11:46:31.756Z,99.99
2017-12-21T11:47:41.922Z,99.99
2017-12-21T11:48:51.793Z,99.99
2017-12-21T11:50:02.898Z,99.99
2017-12-21T11:51:12.656Z,99.99
2017-12-21T11:52:22.786Z,99.99
2017-12-21T11:53:32.963Z,99.99
2017-12-21T11:54:42.871Z,99.99
2017-12-21T11:55:52.997Z,99.99
2017-12-21T11:57:03.106Z,99.99
2017-12-21T11:58:13.347Z,99.99
2017-12-21T11:59:23.211Z,99.99
2017-12-21T12:00:33.360Z,99.99
2017-12-21T12:01:43.489Z,99.99
2017-12-21T12:02:53.424Z,99.84
2017-12-21T12:04:03.637Z,99.99
2017-12-21T12:05:13.756Z,99.99
2017-12-21T12:06:23.631Z,99.99
2017-12-21T12:07:33.740Z,99.99
2017-12-21T12:08:43.898Z,99.99
2017-12-21T12:09:53.776Z,99.84
2017-12-21T12:11:03.692Z,99.93
2017-12-21T12:12:13.590Z,99.99
2017-12-21T12:13:23.803Z,99.93
2017-12-21T12:14:34.007Z,99.84
2017-12-21T12:15:43.864Z,99.99
2017-12-21T12:16:54.049Z,99.55
2017-12-21T12:18:04.165Z,99.27
2017-12-21T12:19:14.276Z,99.17
2017-12-21T12:20:24.409Z,99.27
2017-12-21T12:21:34.523Z,99.27
2017-12-21T12:22:44.732Z,99.17
2017-12-21T12:23:54.842Z,99.08
2017-12-21T12:25:04.805Z,99.27
2017-12-21T12:26:14.937Z,98.98
2017-12-21T12:27:25.083Z,99.08
2017-12-21T12:28:35.059Z,99.55
2017-12-21T12:29:45.227Z,99.46
2017-12-21T12:30:55.383Z,98.98
2017-12-21T12:32:05.522Z,98.79
2017-12-21T12:33:15.380Z,98.98
2017-12-21T12:34:25.506Z,98.32
2017-12-21T12:35:35.659Z,98.6
2017-12-21T12:36:45.800Z,98.74
2017-12-21T12:37:55.994Z,98.65
2017-12-21T12:39:06.128Z,98.46
2017-12-21T12:40:15.483Z,98.65
2017-12-21T12:41:25.351Z,98.88
2017-12-21T12:42:35.477Z,98.46
2017-12-21T12:43:45.087Z,98.74
2017-12-21T12:44:54.977Z,98.18
2017-12-21T12:46:05.123Z,98.08
2017-12-21T12:47:14.992Z,98.55
2017-12-21T12:48:26.101Z,97.51
2017-12-21T12:49:35.971Z,98.27
2017-12-21T12:50:45.883Z,98.18
2017-12-21T12:51:55.825Z,98.27
2017-12-21T12:53:05.688Z,98.27
2017-12-21T12:54:15.815Z,98.46
2017-12-21T12:55:25.790Z,97.89
2017-12-21T12:56:35.556Z,97.7
2017-12-21T12:57:45.830Z,97.51
2017-12-21T12:58:56.037Z,97.7
2017-12-21T13:00:06.146Z,98.18
2017-12-21T13:01:16.041Z,97.51
2017-12-21T13:02:26.258Z,97.6
2017-12-21T13:03:36.495Z,97.7
2017-12-21T13:04:46.693Z,97.6
2017-12-21T13:05:56.264Z,97.7
2017-12-21T13:07:06.381Z,97.79
2017-12-21T13:08:16.155Z,97.99
2017-12-21T13:09:26.276Z,97.79
2017-12-21T13:10:36.396Z,97.51
2017-12-21T13:11:46.513Z,97.31
2017-12-21T13:12:56.723Z,97.6
2017-12-21T13:14:06.934Z,97.7
2017-12-21T13:15:17.057Z,97.99
2017-12-21T13:16:27.231Z,97.6
2017-12-21T13:17:36.472Z,97.31
2017-12-21T13:18:46.588Z,97.6
2017-12-21T13:19:56.445Z,97.7
2017-12-21T13:21:06.328Z,97.6
2017-12-21T13:22:16.454Z,97.99
2017-12-21T13:23:26.576Z,97.89
2017-12-21T13:24:36.728Z,97.51
2017-12-21T13:25:46.614Z,97.7
2017-12-21T13:26:56.506Z,97.41
2017-12-21T13:28:06.641Z,97.31
2017-12-21T13:29:16.775Z,97.36
2017-12-21T13:30:26.902Z,97.41
2017-12-21T13:31:36.824Z,96.84
2017-12-21T13:32:47.052Z,96.94
2017-12-21T13:33:56.927Z,97.51
2017-12-21T13:35:07.064Z,97.22
2017-12-21T13:36:16.963Z,97.22
2017-12-21T13:37:27.135Z,97.31
2017-12-21T13:38:37.313Z,97.13
2017-12-21T13:39:47.465Z,96.55
2017-12-21T13:40:57.342Z,96.94
2017-12-21T13:42:07.476Z,96.84
2017-12-21T13:43:17.702Z,96.6
2017-12-21T13:44:27.312Z,96.65
2017-12-21T13:45:37.574Z,97.03
2017-12-21T13:46:47.474Z,96.79
2017-12-21T13:47:57.756Z,96.89
2017-12-21T13:49:07.889Z,96.08
2017-12-21T13:50:18.066Z,96.27
2017-12-21T13:51:28.198Z,96.65
2017-12-21T13:52:38.296Z,96.27
2017-12-21T13:53:49.393Z,96.36
2017-12-21T13:54:59.537Z,96.36
2017-12-21T13:56:09.330Z,96.27
2017-12-21T13:57:19.497Z,95.79
2017-12-21T13:58:29.649Z,96.08
2017-12-21T13:59:39.813Z,95.79
2017-12-21T14:00:50.044Z,95.94
2017-12-21T14:01:59.928Z,95.98
2017-12-21T14:03:10.081Z,95.36
2017-12-21T14:04:20.281Z,95.51
2017-12-21T14:05:30.181Z,95.51
2017-12-21T14:06:39.778Z,95.46
2017-12-21T14:07:49.936Z,95.32
2017-12-21T14:08:59.823Z,95.32
2017-12-21T14:10:09.698Z,95.51
2017-12-21T14:11:19.596Z,95.51
2017-12-21T14:12:29.755Z,95.41
2017-12-21T14:13:40.020Z,94.93
2017-12-21T14:14:50.226Z,96.08
2017-12-21T14:16:00.559Z,95.32
2017-12-21T14:17:10.766Z,95.41
2017-12-21T14:18:20.964Z,95.03
2017-12-21T14:19:31.158Z,95.51
2017-12-21T14:20:41.342Z,95.41
2017-12-21T14:21:51.555Z,94.93
2017-12-21T14:23:02.803Z,94.79
2017-12-21T14:24:12.953Z,95.41
2017-12-21T14:25:23.258Z,95.03
2017-12-21T14:26:33.377Z,94.89
2017-12-21T14:27:43.541Z,94.93
2017-12-21T14:28:53.534Z,94.74
2017-12-21T14:30:03.686Z,95.08
2017-12-21T14:31:13.857Z,94.98
2017-12-21T14:32:24.008Z,94.79
2017-12-21T14:33:34.128Z,94.42
2017-12-21T14:34:44.295Z,94.89
2017-12-21T14:35:54.414Z,94.89
2017-12-21T14:37:04.340Z,94.7
2017-12-21T14:38:14.488Z,94.79
2017-12-21T14:39:24.341Z,94.51
2017-12-21T14:40:34.473Z,94.32
2017-12-21T14:41:44.250Z,94.13
2017-12-21T14:42:54.382Z,94.03
2017-12-21T14:44:04.504Z,93.94
2017-12-21T14:45:14.368Z,94.32
2017-12-21T14:46:24.691Z,94.13
2017-12-21T14:47:34.599Z,94.13
2017-12-21T14:48:44.463Z,93.94
2017-12-21T14:49:54.323Z,94.03
2017-12-21T14:51:04.229Z,93.84
2017-12-21T14:52:14.613Z,93.65
2017-12-21T14:53:24.754Z,94.03
2017-12-21T14:54:34.926Z,93.74
2017-12-21T14:55:45.146Z,94.03
2017-12-21T14:56:55.031Z,94.03
2017-12-21T14:58:05.155Z,94.03
2017-12-21T14:59:15.380Z,93.37
2017-12-21T15:00:25.518Z,93.27
2017-12-21T15:01:35.756Z,93.37
2017-12-21T15:02:45.973Z,93.46
2017-12-21T15:03:56.150Z,93.18